Time;durP1;ratioP1;P1;durP2;ratioP2;P2;SDS_P1;SDS_P2;PMS_P1;PMS_P2;Temp;Humidity;BMP_temperature;BMP_pressure;BME280_temperature;BME280_humidity;BME280_pressure;Samples;Min_cycle;Max_cycle;Signal;HPM_P1;HPM_P2
2023/01/06 00:02:31;;;;;;;11.47;8.60;;;10.80;96.70;;;;;;5053493;28;20550;-74
2023/01/06 00:05:00;;;;;;;13.73;9.52;;;10.80;96.70;;;;;;5075329;28;20378;-74
2023/01/06 00:07:47;;;;;;;12.15;9.90;;;10.80;96.70;;;;;;5050020;28;20048;-74
2023/01/06 00:10:21;;;;;;;13.18;10.25;;;10.80;96.70;;;;;;5059110;28;20391;-75
2023/01/06 00:12:57;;;;;;;15.43;9.85;;;10.70;96.70;;;;;;5054726;28;20187;-75
2023/01/06 00:15:33;;;;;;;11.38;9.23;;;10.60;96.70;;;;;;5075875;28;20044;-75
2023/01/06 00:18:09;;;;;;;11.48;9.38;;;10.60;96.70;;;;;;5020614;28;20422;-75
2023/01/06 00:20:43;;;;;;;12.77;9.45;;;10.70;96.70;;;;;;5059403;28;20049;-74
2023/01/06 00:23:20;;;;;;;12.10;9.52;;;10.70;96.70;;;;;;5056964;28;20051;-75
2023/01/06 00:25:54;;;;;;;12.73;10.25;;;10.70;96.70;;;;;;5078527;28;20051;-75
2023/01/06 00:28:29;;;;;;;13.35;9.40;;;10.80;96.70;;;;;;5078131;28;20491;-75
2023/01/06 00:31:07;;;;;;;13.52;9.98;;;10.80;96.70;;;;;;5041601;28;20135;-75
2023/01/06 00:33:36;;;;;;;12.10;10.02;;;10.80;96.70;;;;;;5076059;28;20094;-75
2023/01/06 00:36:11;;;;;;;12.43;9.88;;;10.80;96.70;;;;;;5073857;28;20453;-76
2023/01/06 00:38:48;;;;;;;14.68;9.85;;;10.80;96.70;;;;;;5048785;28;21198;-75
2023/01/06 00:44:15;;;;;;;10.98;9.02;;;10.80;96.70;;;;;;5050154;28;20410;-74
2023/01/06 00:46:51;;;;;;;12.13;9.30;;;10.80;96.70;;;;;;5043844;28;20696;-75
2023/01/06 00:49:20;;;;;;;;;;;10.90;96.70;;;;;;5009916;28;20617;-75
2023/01/06 00:52:05;;;;;;;12.52;8.90;;;10.90;96.70;;;;;;5043739;28;20059;-75
2023/01/06 00:54:43;;;;;;;13.68;9.40;;;10.90;96.70;;;;;;5043276;28;20047;-75
2023/01/06 00:57:18;;;;;;;12.10;9.15;;;10.90;96.70;;;;;;5039788;28;20171;-75
2023/01/06 00:59:54;;;;;;;12.23;8.68;;;10.70;96.70;;;;;;5027943;28;20139;-75
2023/01/06 01:02:32;;;;;;;12.77;9.60;;;10.80;96.70;;;;;;5038184;28;20044;-75
2023/01/06 01:05:01;;;;;;;13.00;9.57;;;10.70;96.70;;;;;;5022809;28;20045;-76
2023/01/06 01:07:34;;;;;;;12.82;9.32;;;10.80;96.70;;;;;;5034661;28;20036;-76
2023/01/06 01:10:05;;;;;;;11.50;9.40;;;10.80;96.70;;;;;;5031817;28;20040;-76
2023/01/06 01:12:35;;;;;;;11.00;8.73;;;10.80;96.70;;;;;;5041950;28;20051;-75
2023/01/06 01:15:11;;;;;;;14.82;8.80;;;10.80;96.70;;;;;;5035638;28;20037;-76
2023/01/06 01:17:47;;;;;;;12.93;9.45;;;10.80;96.70;;;;;;5029961;28;20053;-76
2023/01/06 01:20:22;;;;;;;14.90;9.45;;;10.80;96.70;;;;;;5038198;28;20072;-74
2023/01/06 01:22:56;;;;;;;12.27;9.25;;;10.80;96.70;;;;;;5031169;28;20146;-74
2023/01/06 01:25:27;;;;;;;10.80;8.27;;;10.80;96.70;;;;;;5027198;28;20051;-75
2023/01/06 01:27:56;;;;;;;12.68;8.77;;;10.90;96.70;;;;;;5026498;28;20048;-75
2023/01/06 01:30:25;;;;;;;11.00;8.00;;;10.90;96.70;;;;;;5021626;28;20042;-75
2023/01/06 01:32:54;;;;;;;12.23;8.80;;;10.80;96.70;;;;;;5041953;28;20049;-75
2023/01/06 01:35:25;;;;;;;11.18;7.93;;;10.90;96.70;;;;;;5034583;28;20062;-75
2023/01/06 01:37:54;;;;;;;14.07;8.73;;;10.90;96.70;;;;;;5030970;28;20598;-74
2023/01/06 01:40:22;;;;;;;11.40;8.40;;;10.90;96.70;;;;;;5025836;28;20124;-75
2023/01/06 01:42:53;;;;;;;14.73;8.35;;;10.90;96.70;;;;;;5027239;28;20622;-75
2023/01/06 01:45:24;;;;;;;11.05;7.50;;;10.90;96.70;;;;;;5033397;28;20459;-75
2023/01/06 01:47:56;;;;;;;11.57;8.20;;;10.90;96.70;;;;;;5031694;28;20503;-75
2023/01/06 01:50:30;;;;;;;12.43;8.05;;;10.90;96.70;;;;;;5041374;28;20139;-74
2023/01/06 01:53:08;;;;;;;13.30;8.93;;;11.00;96.70;;;;;;5052889;28;20044;-75
2023/01/06 01:55:42;;;;;;;10.48;8.65;;;10.70;96.70;;;;;;5040410;28;20137;-74
2023/01/06 01:58:21;;;;;;;12.77;7.47;;;10.80;96.70;;;;;;5055109;28;21406;-75
2023/01/06 02:00:54;;;;;;;9.65;7.88;;;10.90;96.70;;;;;;5054787;28;20448;-74
2023/01/06 02:03:30;;;;;;;10.88;8.27;;;10.90;96.70;;;;;;5055503;28;20406;-75
2023/01/06 02:06:11;;;;;;;12.85;7.90;;;10.90;96.70;;;;;;5045333;28;20475;-75
2023/01/06 02:08:46;;;;;;;10.82;8.43;;;10.90;96.70;;;;;;5055772;28;20560;-75
2023/01/06 02:11:23;;;;;;;10.85;8.40;;;10.90;96.70;;;;;;5054676;28;20139;-75
2023/01/06 02:14:15;;;;;;;10.82;8.15;;;10.90;96.70;;;;;;5045854;28;20151;-76
2023/01/06 02:17:15;;;;;;;14.70;8.60;;;10.90;96.70;;;;;;5055231;28;20060;-75
2023/01/06 02:20:34;;;;;;;11.43;7.95;;;10.90;96.70;;;;;;5061342;28;20044;-75
2023/01/06 02:23:58;;;;;;;10.38;7.70;;;10.90;96.70;;;;;;4979590;28;21311;-75
2023/01/06 02:27:21;;;;;;;10.82;7.90;;;10.90;96.70;;;;;;5057868;28;20146;-75
2023/01/06 02:30:19;;;;;;;9.77;8.40;;;10.90;96.70;;;;;;5019368;28;20515;-75
2023/01/06 02:33:24;;;;;;;11.52;8.18;;;10.90;96.70;;;;;;5066319;28;20044;-75
2023/01/06 02:36:20;;;;;;;13.70;8.48;;;10.90;96.70;;;;;;5063578;28;20264;-75
2023/01/06 02:39:16;;;;;;;11.18;7.97;;;10.90;96.70;;;;;;5043541;28;20139;-75
2023/01/06 02:42:18;;;;;;;10.38;8.60;;;10.90;96.70;;;;;;5058616;28;20048;-75
2023/01/06 02:45:02;;;;;;;11.73;9.25;;;10.90;96.70;;;;;;5059718;28;20123;-75
2023/01/06 02:47:38;;;;;;;12.25;8.65;;;10.90;96.70;;;;;;5052339;28;20075;-75
2023/01/06 02:50:18;;;;;;;11.52;8.65;;;10.80;96.70;;;;;;5073393;28;20052;-75
2023/01/06 02:53:03;;;;;;;;;;;10.80;96.70;;;;;;5066117;28;20044;-76
2023/01/06 02:55:38;;;;;;;;;;;10.80;96.70;;;;;;5066172;28;19951;-75
2023/01/06 02:58:22;;;;;;;14.18;9.88;;;10.80;96.70;;;;;;5048375;28;19925;-74
2023/01/06 03:01:12;;;;;;;15.23;10.00;;;10.90;96.70;;;;;;5047786;28;20045;-75
2023/01/06 03:03:45;;;;;;;12.40;10.52;;;10.90;96.70;;;;;;5065236;28;20048;-75
2023/01/06 03:06:23;;;;;;;12.68;10.25;;;10.90;96.70;;;;;;5043213;28;20445;-75
2023/01/06 03:08:55;;;;;;;14.30;10.98;;;10.90;96.70;;;;;;5037703;28;20072;-76
2023/01/06 03:11:26;;;;;;;12.18;9.95;;;10.80;96.70;;;;;;5060493;28;20048;-74
2023/01/06 03:14:00;;;;;;;12.77;10.75;;;10.80;96.70;;;;;;5053872;28;20147;-75
2023/01/06 03:16:29;;;;;;;11.63;9.75;;;10.80;96.70;;;;;;5051399;28;20087;-75
2023/01/06 03:18:58;;;;;;;13.30;10.77;;;10.90;96.70;;;;;;5035725;28;20473;-74
2023/01/06 03:21:34;;;;;;;13.20;10.77;;;10.90;96.70;;;;;;5058582;28;20648;-74
2023/01/06 03:24:05;;;;;;;12.70;10.45;;;10.80;96.70;;;;;;5047034;28;20053;-75
2023/01/06 03:26:35;;;;;;;13.40;10.05;;;10.80;96.70;;;;;;5059546;28;20941;-75
2023/01/06 03:29:07;;;;;;;13.43;10.80;;;10.90;96.70;;;;;;5052637;28;20597;-74
2023/01/06 03:31:44;;;;;;;13.48;10.63;;;10.90;96.70;;;;;;5039899;28;20056;-75
2023/01/06 03:34:27;;;;;;;11.27;9.80;;;10.90;96.70;;;;;;5058482;28;20068;-75
2023/01/06 03:37:15;;;;;;;12.20;10.63;;;10.80;96.70;;;;;;5048037;28;20130;-75
2023/01/06 03:40:08;;;;;;;14.77;10.07;;;10.80;96.70;;;;;;5054310;28;20140;-74
2023/01/06 03:46:10;;;;;;;12.10;10.40;;;10.80;96.70;;;;;;5065354;28;20037;-75
2023/01/06 03:48:58;;;;;;;13.63;11.05;;;10.80;96.70;;;;;;5050240;28;20040;-74
2023/01/06 03:51:53;;;;;;;11.63;10.40;;;10.80;96.70;;;;;;5053099;28;20067;-74
2023/01/06 03:54:39;;;;;;;13.30;11.23;;;10.80;96.70;;;;;;5047275;28;20049;-74
2023/01/06 03:57:22;;;;;;;11.95;10.15;;;10.80;96.70;;;;;;5026536;28;20294;-74
2023/01/06 03:59:56;;;;;;;14.20;10.75;;;10.80;96.70;;;;;;5060685;28;20694;-74
2023/01/06 04:02:26;;;;;;;11.25;9.27;;;10.80;96.70;;;;;;5049656;28;20074;-74
2023/01/06 04:05:06;;;;;;;10.77;9.68;;;10.80;96.70;;;;;;5054668;28;20133;-74
2023/01/06 04:07:34;;;;;;;11.20;9.90;;;10.90;96.70;;;;;;5057780;28;20048;-75
2023/01/06 04:10:07;;;;;;;13.15;10.20;;;10.90;96.70;;;;;;5046684;28;20044;-74
2023/01/06 04:12:38;;;;;;;12.95;9.90;;;10.90;96.70;;;;;;5064499;28;20041;-75
2023/01/06 04:15:18;;;;;;;12.60;10.00;;;10.90;96.70;;;;;;5048077;28;20045;-75
2023/01/06 04:17:58;;;;;;;15.02;9.68;;;10.80;96.70;;;;;;5061042;28;20140;-75
2023/01/06 04:20:31;;;;;;;14.38;9.57;;;10.90;96.70;;;;;;5030864;28;20607;-74
2023/01/06 04:23:14;;;;;;;11.43;9.27;;;10.90;96.70;;;;;;5060462;28;20063;-75
2023/01/06 04:25:46;;;;;;;12.65;9.75;;;10.90;96.70;;;;;;5059821;28;20499;-74
2023/01/06 04:28:50;;;;;;;12.18;9.75;;;10.90;96.70;;;;;;4969492;28;20157;-75
2023/01/06 04:31:26;;;;;;;11.90;10.05;;;10.90;96.70;;;;;;4965902;28;20061;-74
2023/01/06 04:34:02;;;;;;;13.10;8.93;;;10.80;96.70;;;;;;4973590;28;20542;-75
2023/01/06 04:36:37;;;;;;;11.05;9.27;;;10.90;96.70;;;;;;4980212;28;20046;-74
2023/01/06 04:39:14;;;;;;;12.75;9.25;;;10.80;96.70;;;;;;4973584;28;20051;-74
2023/01/06 04:41:50;;;;;;;12.18;9.93;;;10.80;96.70;;;;;;4981375;28;20049;-74
2023/01/06 04:44:23;;;;;;;12.47;9.90;;;10.80;96.70;;;;;;4979920;28;20092;-74
2023/01/06 04:46:59;;;;;;;13.50;9.52;;;10.90;96.70;;;;;;4980559;28;20709;-75
2023/01/06 04:49:35;;;;;;;11.70;9.25;;;10.90;96.70;;;;;;4962586;28;20447;-75
2023/01/06 04:52:10;;;;;;;11.27;8.90;;;10.90;96.70;;;;;;4989789;28;20109;-74
2023/01/06 04:54:45;;;;;;;12.52;8.93;;;10.90;96.70;;;;;;4990839;28;20047;-74
2023/01/06 04:57:21;;;;;;;11.45;8.88;;;10.90;96.70;;;;;;4989579;28;20114;-75
2023/01/06 04:59:59;;;;;;;11.10;8.73;;;10.90;96.70;;;;;;4981648;28;20172;-75
2023/01/06 05:02:32;;;;;;;11.90;9.18;;;10.80;96.70;;;;;;4978795;28;20586;-74
2023/01/06 05:05:01;;;;;;;12.25;8.65;;;10.90;96.70;;;;;;5015113;28;20048;-74
2023/01/06 05:07:37;;;;;;;13.23;9.35;;;10.90;96.70;;;;;;5063400;28;20044;-74
2023/01/06 05:10:12;;;;;;;10.52;8.38;;;10.90;96.70;;;;;;5046212;28;20055;-74
2023/01/06 05:12:43;;;;;;;9.93;8.57;;;11.00;96.70;;;;;;5061705;28;20052;-74
2023/01/06 05:15:18;;;;;;;10.80;8.65;;;11.00;96.70;;;;;;5061229;28;20051;-74
2023/01/06 05:17:51;;;;;;;13.02;9.45;;;11.00;96.70;;;;;;5060293;28;20045;-74
2023/01/06 05:20:26;;;;;;;11.85;9.23;;;10.90;96.70;;;;;;5061314;28;20044;-74
2023/01/06 05:23:02;;;;;;;11.63;8.48;;;11.00;96.70;;;;;;5061392;28;20099;-75
2023/01/06 05:25:39;;;;;;;11.55;8.80;;;10.90;96.70;;;;;;5063150;28;20040;-74
2023/01/06 05:28:14;;;;;;;11.63;9.10;;;10.90;96.70;;;;;;5044845;28;20044;-75
2023/01/06 05:30:49;;;;;;;9.53;8.50;;;10.90;96.70;;;;;;5063043;28;20068;-75
2023/01/06 05:33:23;;;;;;;9.65;8.02;;;10.90;96.70;;;;;;5062588;28;20216;-74
2023/01/06 05:35:57;;;;;;;11.35;8.75;;;10.90;96.70;;;;;;5044436;28;20506;-75
2023/01/06 05:38:26;;;;;;;9.45;8.38;;;11.00;96.70;;;;;;5045516;28;20044;-74
2023/01/06 05:41:02;;;;;;;11.63;8.65;;;11.00;96.70;;;;;;5063119;28;20479;-74
2023/01/06 05:43:40;;;;;;;9.93;8.75;;;11.00;96.70;;;;;;5044118;28;20471;-74
2023/01/06 05:46:15;;;;;;;11.27;8.32;;;10.90;96.70;;;;;;5055974;28;20079;-75
2023/01/06 05:48:50;;;;;;;13.00;8.57;;;10.90;96.70;;;;;;5057695;28;20051;-75
2023/01/06 05:51:26;;;;;;;10.90;8.43;;;10.90;96.70;;;;;;5060481;28;20060;-74
2023/01/06 05:53:55;;;;;;;10.73;8.90;;;10.80;96.70;;;;;;5061233;28;20044;-74
2023/01/06 05:56:24;;;;;;;10.43;8.68;;;10.80;96.70;;;;;;5062285;28;20056;-74
2023/01/06 05:58:55;;;;;;;10.15;7.88;;;10.80;96.70;;;;;;5062537;28;20614;-74
2023/01/06 06:01:25;;;;;;;10.68;8.88;;;10.90;96.70;;;;;;5061242;28;20032;-74
2023/01/06 06:03:54;;;;;;;10.80;8.40;;;10.90;96.70;;;;;;5061645;28;20520;-74
2023/01/06 06:06:25;;;;;;;11.52;9.25;;;10.90;96.70;;;;;;5052494;28;20070;-74
2023/01/06 06:08:54;;;;;;;11.75;8.30;;;10.90;96.70;;;;;;5061200;28;20054;-75
2023/01/06 06:11:22;;;;;;;9.63;8.27;;;10.90;96.70;;;;;;5062480;28;20550;-72
2023/01/06 06:13:54;;;;;;;8.80;7.47;;;10.90;96.70;;;;;;5060783;28;20049;-74
2023/01/06 06:16:25;;;;;;;11.05;8.18;;;10.90;96.70;;;;;;5044109;28;20048;-74
2023/01/06 06:18:56;;;;;;;9.38;7.82;;;10.90;96.70;;;;;;5061234;28;20466;-74
2023/01/06 06:21:26;;;;;;;9.13;7.85;;;10.90;96.70;;;;;;5062630;28;20133;-74
2023/01/06 06:23:57;;;;;;;10.00;8.18;;;10.90;96.70;;;;;;5062272;28;20098;-74
2023/01/06 06:26:26;;;;;;;10.30;7.25;;;10.90;96.70;;;;;;5044774;28;20052;-74
2023/01/06 06:29:06;;;;;;;10.18;7.75;;;10.90;96.70;;;;;;5062257;28;20047;-74
2023/01/06 06:31:37;;;;;;;10.75;7.72;;;10.90;96.70;;;;;;5062234;28;20132;-74
2023/01/06 06:34:15;;;;;;;9.70;7.80;;;10.80;96.70;;;;;;5043638;28;20074;-74
2023/01/06 06:36:44;;;;;;;8.50;7.13;;;10.80;96.70;;;;;;5062215;28;20564;-75
2023/01/06 06:39:29;;;;;;;11.07;7.72;;;10.80;96.70;;;;;;5044612;28;20067;-75
2023/01/06 06:41:58;;;;;;;8.30;7.33;;;10.80;96.70;;;;;;5059680;28;20102;-75
2023/01/06 06:44:41;;;;;;;12.23;8.00;;;10.80;96.70;;;;;;5057574;28;20032;-74
2023/01/06 06:47:17;;;;;;;11.10;7.85;;;10.80;96.70;;;;;;5053018;28;20534;-74
2023/01/06 06:49:53;;;;;;;8.90;7.23;;;10.70;96.70;;;;;;5058962;28;20051;-75
2023/01/06 06:52:22;;;;;;;10.60;7.70;;;10.70;96.70;;;;;;5050705;28;20041;-75
2023/01/06 06:54:58;;;;;;;;;;;10.80;96.70;;;;;;5044848;28;20406;-75
2023/01/06 06:57:42;;;;;;;11.05;8.40;;;10.80;96.70;;;;;;5048587;28;19924;-75
2023/01/06 07:00:18;;;;;;;12.60;9.32;;;10.80;96.70;;;;;;5040681;28;20143;-74
2023/01/06 07:02:48;;;;;;;14.07;9.27;;;10.70;96.70;;;;;;5065642;28;20049;-75
2023/01/06 07:05:24;;;;;;;12.20;9.20;;;10.70;96.70;;;;;;5051417;28;20042;-74
2023/01/06 07:07:57;;;;;;;12.23;8.32;;;10.80;96.70;;;;;;5047657;28;20120;-74
2023/01/06 07:10:32;;;;;;;12.60;8.80;;;10.80;96.70;;;;;;5064770;28;20044;-75
2023/01/06 07:13:01;;;;;;;15.63;9.10;;;10.80;96.70;;;;;;5058723;28;20537;-74
2023/01/06 07:15:35;;;;;;;11.57;8.80;;;10.80;96.70;;;;;;5056312;28;20422;-75
2023/01/06 07:18:09;;;;;;;10.10;8.60;;;10.90;96.70;;;;;;5055100;28;20549;-75
2023/01/06 07:20:48;;;;;;;9.60;8.50;;;10.90;96.70;;;;;;5051709;28;20062;-75
2023/01/06 07:23:21;;;;;;;10.32;7.97;;;10.90;96.70;;;;;;5059591;28;20057;-75
2023/01/06 07:25:56;;;;;;;11.32;8.77;;;10.90;96.70;;;;;;5047449;28;20134;-74
2023/01/06 07:28:32;;;;;;;12.88;8.82;;;10.90;96.70;;;;;;5052561;28;20126;-75
2023/01/06 07:31:07;;;;;;;12.20;9.50;;;10.90;96.70;;;;;;5050977;28;20036;-75
2023/01/06 07:33:41;;;;;;;11.95;9.00;;;10.70;96.70;;;;;;5047613;28;20572;-75
2023/01/06 07:36:17;;;;;;;11.45;9.48;;;10.80;96.70;;;;;;5063917;28;20047;-75
2023/01/06 07:38:53;;;;;;;10.60;8.63;;;10.80;96.70;;;;;;5061875;28;20094;-76
2023/01/06 07:41:31;;;;;;;11.00;9.15;;;10.90;96.70;;;;;;5052723;28;20063;-76
2023/01/06 07:44:00;;;;;;;12.02;9.48;;;10.90;96.70;;;;;;5045026;28;20135;-76
2023/01/06 07:46:33;;;;;;;10.25;9.10;;;11.00;96.70;;;;;;5062543;28;20083;-75
2023/01/06 07:49:03;;;;;;;12.20;8.73;;;11.00;96.70;;;;;;5048547;28;20049;-79
2023/01/06 07:51:35;;;;;;;11.65;9.93;;;11.00;96.70;;;;;;5032150;28;20484;-80
2023/01/06 07:54:10;;;;;;;11.90;9.85;;;11.10;96.70;;;;;;5046319;28;20163;-78
2023/01/06 07:56:46;;;;;;;16.60;10.53;;;11.10;96.70;;;;;;5049289;28;20409;-82
2023/01/06 07:59:22;;;;;;;14.73;10.67;;;11.20;96.70;;;;;;5037576;28;20120;-81
2023/01/06 08:02:00;;;;;;;15.60;11.00;;;11.20;96.70;;;;;;5048866;28;20059;-79
2023/01/06 08:04:37;;;;;;;14.23;10.25;;;11.20;96.70;;;;;;5070150;28;20040;-76
2023/01/06 08:07:12;;;;;;;25.90;21.35;;;11.20;96.70;;;;;;5051518;28;20040;-75
2023/01/06 08:09:51;;;;;;;13.50;10.70;;;11.30;96.70;;;;;;5072618;28;20057;-75
2023/01/06 08:12:26;;;;;;;17.27;11.57;;;11.30;96.70;;;;;;5067139;28;20049;-79
2023/01/06 08:15:00;;;;;;;13.88;10.63;;;11.30;96.70;;;;;;5048134;28;20415;-79
2023/01/06 08:17:37;;;;;;;12.32;9.43;;;11.40;96.70;;;;;;5068632;28;20036;-80
2023/01/06 08:20:10;;;;;;;13.93;9.70;;;11.40;96.70;;;;;;5049861;28;20075;-78
2023/01/06 08:22:44;;;;;;;15.40;9.30;;;11.40;96.70;;;;;;5069617;28;20051;-76
2023/01/06 08:25:22;;;;;;;13.80;9.70;;;11.50;96.70;;;;;;5047852;28;20048;-77
2023/01/06 08:27:58;;;;;;;10.55;9.15;;;11.50;96.70;;;;;;5050612;28;20142;-76
2023/01/06 08:30:31;;;;;;;13.80;10.43;;;11.50;96.70;;;;;;5055964;28;20066;-76
2023/01/06 08:33:06;;;;;;;12.18;8.82;;;11.60;96.70;;;;;;5045920;28;20056;-76
2023/01/06 08:35:40;;;;;;;11.32;9.15;;;11.60;96.70;;;;;;5054081;28;20472;-75
2023/01/06 08:38:15;;;;;;;10.52;9.27;;;11.60;96.70;;;;;;5049338;28;20052;-76
2023/01/06 08:40:52;;;;;;;9.88;8.05;;;11.60;96.70;;;;;;5053945;28;20059;-76
2023/01/06 08:43:25;;;;;;;;;;;11.60;96.70;;;;;;5056384;28;20044;-76
2023/01/06 08:45:58;;;;;;;11.27;9.82;;;11.60;96.70;;;;;;5042932;28;19930;-75
2023/01/06 08:48:30;;;;;;;14.25;10.30;;;11.70;96.70;;;;;;5052615;28;20051;-77
2023/01/06 08:51:06;;;;;;;13.38;9.32;;;11.70;96.70;;;;;;5058860;28;20529;-76
2023/01/06 08:53:39;;;;;;;13.15;9.40;;;11.60;96.70;;;;;;5056580;28;20102;-77
2023/01/06 08:56:14;;;;;;;11.05;9.45;;;11.70;96.70;;;;;;5023530;28;20910;-76
2023/01/06 08:58:52;;;;;;;13.18;9.82;;;11.70;96.70;;;;;;5059151;28;20052;-77
2023/01/06 09:01:29;;;;;;;13.63;9.70;;;11.80;96.70;;;;;;5055501;28;20155;-77
2023/01/06 09:04:16;;;;;;;12.45;8.77;;;11.80;96.70;;;;;;5063674;28;20147;-78
2023/01/06 09:06:50;;;;;;;12.32;9.07;;;11.90;96.70;;;;;;5036111;28;20547;-75
2023/01/06 09:09:27;;;;;;;11.27;8.57;;;11.90;96.70;;;;;;5062571;28;20159;-76
2023/01/06 09:12:03;;;;;;;10.93;8.73;;;11.90;96.70;;;;;;5038933;28;20049;-77
2023/01/06 09:14:38;;;;;;;11.93;10.27;;;12.00;96.70;;;;;;5062471;28;20125;-76
2023/01/06 09:17:12;;;;;;;10.82;8.77;;;12.00;96.70;;;;;;5049253;28;20055;-76
2023/01/06 09:19:52;;;;;;;11.45;8.88;;;12.10;96.70;;;;;;5058884;28;20330;-76
2023/01/06 09:22:23;;;;;;;12.75;9.00;;;12.20;96.70;;;;;;5051671;28;20044;-78
2023/01/06 09:24:59;;;;;;;11.88;9.02;;;12.20;96.70;;;;;;5062059;28;20052;-77
2023/01/06 09:27:28;;;;;;;11.48;9.30;;;12.20;96.70;;;;;;5062081;28;20040;-77
2023/01/06 09:30:04;;;;;;;14.30;8.98;;;12.20;96.70;;;;;;5063023;28;20041;-76
2023/01/06 09:32:41;;;;;;;11.57;9.20;;;12.20;96.70;;;;;;5048891;28;20131;-76
2023/01/06 09:35:20;;;;;;;13.38;9.57;;;12.30;96.70;;;;;;5062285;28;20396;-75
2023/01/06 09:37:53;;;;;;;11.00;8.80;;;12.30;96.70;;;;;;5040078;28;20065;-77
2023/01/06 09:40:40;;;;;;;26.17;21.35;;;12.40;96.70;;;;;;5044163;28;20796;-77
2023/01/06 09:43:25;;;;;;;13.20;9.85;;;12.40;96.70;;;;;;5057283;28;20603;-76
2023/01/06 09:46:04;;;;;;;10.35;9.20;;;12.40;96.70;;;;;;5043459;28;20052;-76
2023/01/06 09:48:38;;;;;;;13.05;9.77;;;12.50;96.70;;;;;;5041537;28;20434;-79
2023/01/06 09:51:18;;;;;;;13.43;10.15;;;12.50;96.70;;;;;;5056477;28;20058;-78
2023/01/06 09:53:53;;;;;;;11.75;9.68;;;12.50;96.70;;;;;;5025038;28;20052;-79
2023/01/06 09:56:24;;;;;;;13.48;10.30;;;12.60;96.70;;;;;;5040106;28;20123;-79
2023/01/06 09:59:07;;;;;;;14.95;10.85;;;12.70;96.70;;;;;;5040459;28;20191;-76
2023/01/06 10:01:42;;;;;;;12.48;10.40;;;12.80;96.70;;;;;;5055318;28;20044;-77
2023/01/06 10:04:16;;;;;;;14.15;10.82;;;12.80;96.70;;;;;;5058363;28;20163;-77
2023/01/06 10:07:04;;;;;;;13.10;10.90;;;12.90;96.70;;;;;;5038390;28;20052;-77
2023/01/06 10:09:43;;;;;;;15.95;11.80;;;12.90;96.70;;;;;;5052334;28;20522;-76
2023/01/06 10:12:22;;;;;;;14.23;10.23;;;13.00;96.70;;;;;;5057753;28;20076;-80
2023/01/06 10:15:01;;;;;;;15.45;11.32;;;13.10;96.70;;;;;;5043837;28;20060;-79
2023/01/06 10:17:55;;;;;;;14.50;11.18;;;13.20;96.70;;;;;;5026783;28;20194;-80
2023/01/06 10:20:44;;;;;;;14.70;11.38;;;13.30;96.70;;;;;;5058358;28;20060;-79
2023/01/06 10:23:30;;;;;;;13.55;10.68;;;13.30;96.70;;;;;;5047748;28;20086;-79
2023/01/06 10:26:08;;;;;;;23.00;16.80;;;13.40;96.70;;;;;;5042505;28;20059;-76
2023/01/06 10:28:40;;;;;;;12.50;10.30;;;13.50;96.70;;;;;;5061279;28;20101;-76
2023/01/06 10:31:12;;;;;;;12.15;9.90;;;13.50;96.70;;;;;;5029736;28;20040;-73
2023/01/06 10:33:42;;;;;;;14.65;10.07;;;13.60;96.70;;;;;;5041659;28;20045;-75
2023/01/06 10:36:12;;;;;;;14.98;10.48;;;13.70;96.70;;;;;;5063254;28;20078;-76
2023/01/06 10:38:44;;;;;;;11.38;9.55;;;13.70;96.70;;;;;;5055754;28;20041;-75
2023/01/06 10:41:23;;;;;;;11.95;10.02;;;13.70;96.70;;;;;;5065610;28;20048;-74
2023/01/06 10:43:51;;;;;;;13.27;10.48;;;13.90;96.70;;;;;;5047940;28;20543;-76
2023/01/06 10:46:20;;;;;;;13.57;11.20;;;13.80;96.70;;;;;;5066329;28;20044;-78
2023/01/06 10:48:48;;;;;;;13.30;10.18;;;13.80;96.70;;;;;;5065466;28;20060;-77
2023/01/06 10:51:33;;;;;;;11.63;10.40;;;13.80;96.70;;;;;;5047316;28;20097;-76
2023/01/06 10:54:07;;;;;;;13.85;9.57;;;13.80;96.70;;;;;;5049337;28;20669;-77
2023/01/06 10:56:37;;;;;;;10.70;8.80;;;13.80;96.70;;;;;;5066477;28;20041;-77
2023/01/06 10:59:09;;;;;;;11.77;10.57;;;13.80;96.70;;;;;;5046189;28;20041;-76
2023/01/06 11:01:49;;;;;;;24.40;15.18;;;13.80;96.70;;;;;;5065556;28;20048;-77
2023/01/06 11:04:18;;;;;;;15.88;11.05;;;13.80;96.70;;;;;;5035090;28;20047;-76
2023/01/06 11:06:50;;;;;;;19.20;11.07;;;13.90;96.70;;;;;;5054701;28;20093;-77
2023/01/06 11:09:27;;;;;;;14.32;10.18;;;13.90;96.70;;;;;;5036600;28;20141;-76
2023/01/06 11:11:57;;;;;;;13.35;9.73;;;14.00;96.70;;;;;;5054359;28;20035;-76
2023/01/06 11:14:28;;;;;;;12.27;9.07;;;14.20;96.70;;;;;;5049287;28;20123;-77
2023/01/06 11:17:00;;;;;;;15.23;9.95;;;14.30;96.70;;;;;;5030033;28;20122;-79
2023/01/06 11:19:36;;;;;;;11.23;9.13;;;14.40;96.70;;;;;;5050383;28;20055;-78
2023/01/06 11:22:25;;;;;;;12.57;8.50;;;14.40;96.70;;;;;;5064381;28;20409;-75
2023/01/06 11:24:54;;;;;;;12.18;8.85;;;14.40;96.70;;;;;;5062304;28;20634;-76
2023/01/06 11:27:22;;;;;;;11.38;8.85;;;14.60;96.70;;;;;;5046106;28;20540;-75
2023/01/06 11:29:50;;;;;;;13.68;9.95;;;14.70;96.70;;;;;;5063669;28;20550;-76
2023/01/06 11:32:21;;;;;;;11.45;8.90;;;14.80;96.70;;;;;;5063681;28;20036;-76
2023/01/06 11:34:53;;;;;;;10.30;8.20;;;14.80;96.70;;;;;;5065099;28;20050;-76
2023/01/06 11:37:34;;;;;;;11.98;8.15;;;14.90;96.70;;;;;;5047123;28;20106;-76
2023/01/06 11:40:17;;;;;;;10.85;7.63;;;15.00;96.70;;;;;;5064844;28;20048;-76
2023/01/06 11:42:48;;;;;;;11.23;8.52;;;15.10;96.70;;;;;;5039814;28;20068;-76
2023/01/06 11:45:33;;;;;;;11.00;9.68;;;15.20;96.70;;;;;;5065333;28;20041;-76
2023/01/06 11:48:04;;;;;;;14.00;8.35;;;15.30;96.70;;;;;;5043244;28;20048;-76
2023/01/06 11:50:32;;;;;;;11.43;8.07;;;15.40;96.70;;;;;;5064936;28;20139;-76
2023/01/06 11:53:01;;;;;;;9.93;7.28;;;15.60;96.70;;;;;;5064920;28;20044;-76
2023/01/06 11:55:30;;;;;;;10.43;8.07;;;15.70;96.70;;;;;;5065349;28;20120;-76
2023/01/06 11:58:03;;;;;;;10.25;8.07;;;15.90;96.70;;;;;;5064832;28;20036;-76
2023/01/06 12:00:41;;;;;;;12.25;8.75;;;15.90;96.70;;;;;;5046895;28;20494;-76
2023/01/06 12:03:19;;;;;;;13.52;8.20;;;15.90;96.70;;;;;;5062029;28;20076;-76
2023/01/06 12:05:55;;;;;;;11.10;7.68;;;15.90;96.70;;;;;;5065067;28;20041;-76
2023/01/06 12:08:25;;;;;;;10.90;8.18;;;16.10;96.70;;;;;;5062870;28;20044;-76
2023/01/06 12:10:59;;;;;;;12.75;8.60;;;16.20;96.70;;;;;;5057304;28;20078;-76
2023/01/06 12:13:28;;;;;;;13.63;8.57;;;16.20;96.70;;;;;;5064000;28;20037;-77
2023/01/06 12:16:04;;;;;;;14.07;8.32;;;16.20;96.70;;;;;;5065120;28;20135;-76
2023/01/06 12:18:35;;;;;;;11.57;8.23;;;16.30;96.70;;;;;;5046297;28;20146;-77
2023/01/06 12:21:04;;;;;;;11.15;7.55;;;16.40;96.70;;;;;;5061854;28;20663;-76
2023/01/06 12:23:34;;;;;;;13.38;8.20;;;16.50;96.70;;;;;;5045277;28;20051;-76
2023/01/06 12:26:10;;;;;;;11.38;7.03;;;16.60;96.70;;;;;;5034969;28;20052;-78
2023/01/06 12:28:40;;;;;;;10.15;7.32;;;16.70;96.70;;;;;;5063729;28;20044;-76
2023/01/06 12:31:14;;;;;;;9.30;7.68;;;16.70;96.70;;;;;;5063975;28;20044;-77
2023/01/06 12:33:51;;;;;;;8.95;7.05;;;16.80;96.70;;;;;;5061763;28;21022;-77
2023/01/06 12:36:27;;;;;;;11.50;8.07;;;16.90;96.70;;;;;;5048980;28;20048;-76
2023/01/06 12:38:57;;;;;;;12.77;9.35;;;17.00;96.70;;;;;;5063938;28;20040;-76
2023/01/06 12:41:34;;;;;;;12.88;8.70;;;17.00;96.70;;;;;;5046322;28;20139;-74
2023/01/06 12:44:15;;;;;;;12.93;8.43;;;17.10;96.70;;;;;;5029612;28;20479;-74
2023/01/06 12:46:52;;;;;;;13.93;9.00;;;17.00;96.70;;;;;;5064282;28;20045;-76
2023/01/06 12:49:29;;;;;;;13.82;8.60;;;16.80;96.70;;;;;;5049886;28;20517;-75
2023/01/06 12:52:03;;;;;;;9.48;7.72;;;16.80;96.70;;;;;;5063271;28;20106;-76
2023/01/06 12:54:32;;;;;;;13.45;8.98;;;16.90;96.70;;;;;;5054337;28;20052;-76
2023/01/06 12:57:29;;;;;;;15.13;9.57;;;17.00;96.70;;;;;;5049205;28;20071;-76
2023/01/06 13:00:13;;;;;;;17.00;11.30;;;17.20;96.70;;;;;;5058182;28;20558;-77
2023/01/06 13:03:07;;;;;;;12.48;9.73;;;17.30;96.70;;;;;;5053897;28;20536;-74
2023/01/06 13:06:00;;;;;;;15.88;9.85;;;17.40;96.70;;;;;;5055352;28;20078;-74
2023/01/06 13:08:45;;;;;;;11.48;8.50;;;17.50;96.70;;;;;;5025388;28;20064;-74
2023/01/06 13:11:22;;;;;;;12.60;9.20;;;17.50;96.70;;;;;;5054728;28;20053;-74
2023/01/06 13:14:00;;;;;;;11.88;9.18;;;17.40;96.70;;;;;;5063435;28;20601;-73
2023/01/06 13:16:37;;;;;;;12.32;8.82;;;17.40;96.70;;;;;;5062884;28;20044;-74
2023/01/06 13:19:19;;;;;;;12.98;8.18;;;17.50;96.70;;;;;;5053979;28;20054;-74
2023/01/06 13:21:49;;;;;;;12.55;8.52;;;17.60;96.70;;;;;;5045272;28;20127;-74
2023/01/06 13:24:47;;;;;;;11.27;9.30;;;17.60;96.70;;;;;;5045717;28;20048;-77
2023/01/06 13:27:42;;;;;;;12.90;9.10;;;17.60;96.70;;;;;;5044432;28;20053;-77
2023/01/06 13:30:29;;;;;;;11.52;8.40;;;17.50;96.70;;;;;;5035518;28;20044;-74